createdAt,value
2023-08-08T00:02:48.546Z,14.75
2023-08-08T00:05:51.689Z,14.71
2023-08-08T00:08:54.442Z,14.61
2023-08-08T00:11:59.093Z,14.55
2023-08-08T00:15:02.333Z,14.64
2023-08-08T00:18:05.893Z,14.74
2023-08-08T00:21:08.710Z,14.61
2023-08-08T00:24:11.846Z,14.68
2023-08-08T00:27:14.890Z,14.67
2023-08-08T00:30:17.966Z,14.65
2023-08-08T00:33:20.800Z,14.60
2023-08-08T00:36:24.242Z,14.56
2023-08-08T00:39:27.051Z,14.68
2023-08-08T00:42:30.141Z,14.69
2023-08-08T00:45:33.144Z,14.70
2023-08-08T00:48:36.417Z,14.60
2023-08-08T00:51:39.530Z,14.56
2023-08-08T00:54:42.777Z,14.49
2023-08-08T00:57:45.754Z,14.47
2023-08-08T01:04:27.365Z,14.51
2023-08-08T01:07:45.535Z,14.49
2023-08-08T01:10:48.496Z,14.43
2023-08-08T01:13:53.678Z,14.44
2023-08-08T01:17:01.328Z,14.45
2023-08-08T01:20:09.044Z,14.37
2023-08-08T01:23:25.827Z,14.35
2023-08-08T01:26:30.625Z,14.30
2023-08-08T01:29:33.620Z,14.10
2023-08-08T01:32:36.639Z,14.08
2023-08-08T01:35:43.300Z,14.06
2023-08-08T01:38:50.330Z,13.94
2023-08-08T01:41:55.292Z,13.91
2023-08-08T01:44:58.984Z,13.76
2023-08-08T01:48:16.868Z,13.83
2023-08-08T01:51:19.949Z,13.89
2023-08-08T01:54:24.420Z,13.85
2023-08-08T01:57:27.639Z,13.88
2023-08-08T02:00:31.091Z,13.80
2023-08-08T02:03:34.752Z,13.73
2023-08-08T02:06:37.637Z,13.64
2023-08-08T02:09:41.241Z,13.62
2023-08-08T02:12:45.843Z,13.64
2023-08-08T02:15:49.135Z,13.59
2023-08-08T02:18:52.538Z,13.52
2023-08-08T02:21:55.594Z,13.40
2023-08-08T02:24:58.397Z,13.33
2023-08-08T02:28:01.738Z,13.29
2023-08-08T02:31:04.871Z,13.29
2023-08-08T02:34:07.736Z,13.43
2023-08-08T02:37:10.835Z,13.41
2023-08-08T02:40:13.625Z,13.31
2023-08-08T02:43:18.058Z,13.33
2023-08-08T02:46:21.020Z,13.35
2023-08-08T02:49:24.635Z,13.39
2023-08-08T02:52:27.684Z,13.23
2023-08-08T02:55:30.931Z,13.32
2023-08-08T02:58:33.830Z,13.23
2023-08-08T03:01:40.742Z,13.15
2023-08-08T03:04:44.963Z,13.07
2023-08-08T03:07:48.185Z,12.90
2023-08-08T03:10:51.300Z,13.00
2023-08-08T03:13:54.510Z,13.07
2023-08-08T03:16:59.258Z,12.92
2023-08-08T03:20:04.904Z,13.02
2023-08-08T03:23:07.855Z,12.99
2023-08-08T03:26:12.618Z,12.85
2023-08-08T03:29:15.396Z,12.85
2023-08-08T03:32:19.650Z,12.85
2023-08-08T03:35:22.655Z,12.84
2023-08-08T03:38:26.097Z,12.75
2023-08-08T03:41:29.188Z,12.69
2023-08-08T03:44:32.464Z,12.49
2023-08-08T03:47:35.600Z,12.36
2023-08-08T03:50:38.925Z,12.01
2023-08-08T03:53:41.725Z,11.82
2023-08-08T03:56:44.921Z,11.79
2023-08-08T03:59:48.335Z,11.72
2023-08-08T04:02:51.672Z,11.79
2023-08-08T04:05:55.069Z,11.76
2023-08-08T04:08:57.949Z,11.75
2023-08-08T04:12:01.406Z,11.77
2023-08-08T04:15:04.949Z,11.67
2023-08-08T04:18:08.137Z,11.57
2023-08-08T04:21:10.994Z,11.52
2023-08-08T04:24:14.401Z,11.53
2023-08-08T04:27:17.326Z,11.66
2023-08-08T04:30:20.673Z,11.71
2023-08-08T04:33:23.408Z,11.79
2023-08-08T04:36:26.726Z,11.90
2023-08-08T04:39:29.552Z,11.95
2023-08-08T04:42:33.265Z,11.98
2023-08-08T04:45:36.116Z,12.05
2023-08-08T04:48:39.583Z,12.12
2023-08-08T04:51:42.359Z,12.28
2023-08-08T04:54:45.859Z,12.42
2023-08-08T04:57:48.697Z,12.53
2023-08-08T05:00:56.356Z,12.67
2023-08-08T05:03:59.237Z,12.79
2023-08-08T05:07:02.439Z,12.92
2023-08-08T05:10:06.460Z,13.12
2023-08-08T05:13:10.750Z,13.17
2023-08-08T05:16:13.772Z,13.33
2023-08-08T05:19:17.086Z,13.41
2023-08-08T05:22:19.908Z,13.60
2023-08-08T05:25:23.199Z,14.01
2023-08-08T05:28:25.980Z,14.63
2023-08-08T05:31:29.265Z,15.08
2023-08-08T05:34:34.309Z,15.26
2023-08-08T05:37:38.095Z,15.62
2023-08-08T05:40:41.389Z,16.14
2023-08-08T05:43:45.822Z,16.47
2023-08-08T05:46:49.049Z,16.37
2023-08-08T05:49:52.347Z,16.80
2023-08-08T05:52:55.136Z,17.00
2023-08-08T05:55:58.621Z,17.69
2023-08-08T05:59:01.393Z,18.30
2023-08-08T06:02:04.795Z,18.18
2023-08-08T06:05:09.010Z,17.48
2023-08-08T06:08:13.533Z,17.27
2023-08-08T06:11:16.857Z,17.16
2023-08-08T06:14:19.759Z,16.91
2023-08-08T06:17:24.898Z,17.04
2023-08-08T06:20:27.869Z,17.47
2023-08-08T06:23:30.961Z,17.40
2023-08-08T06:26:33.974Z,17.44
2023-08-08T06:29:36.997Z,17.62
2023-08-08T06:32:39.899Z,17.60
2023-08-08T06:35:43.400Z,17.68
2023-08-08T06:38:46.373Z,17.84
2023-08-08T06:41:49.623Z,17.78
2023-08-08T06:44:54.818Z,17.61
2023-08-08T06:47:58.473Z,17.69
2023-08-08T06:51:01.363Z,17.72
2023-08-08T06:54:04.871Z,17.64
2023-08-08T06:57:07.844Z,17.80
2023-08-08T07:00:15.009Z,18.03
2023-08-08T07:03:17.877Z,18.10
2023-08-08T07:06:21.706Z,18.23
2023-08-08T07:09:25.955Z,18.34
2023-08-08T07:12:29.085Z,18.50
2023-08-08T07:15:32.514Z,18.57
2023-08-08T07:18:35.721Z,18.58
2023-08-08T07:21:38.643Z,18.62
2023-08-08T07:24:41.724Z,18.90
2023-08-08T07:27:44.498Z,19.34
2023-08-08T07:30:47.539Z,19.76
2023-08-08T07:33:50.360Z,20.00
2023-08-08T07:36:53.386Z,19.48
2023-08-08T07:39:56.351Z,19.33
2023-08-08T07:42:59.435Z,19.26
2023-08-08T07:46:02.254Z,19.22
2023-08-08T07:49:06.196Z,19.20
2023-08-08T07:52:09.309Z,19.62
2023-08-08T07:55:12.464Z,19.58
2023-08-08T07:58:15.557Z,19.57
2023-08-08T08:01:19.805Z,19.58
2023-08-08T08:04:23.006Z,19.60
2023-08-08T08:07:25.932Z,19.37
2023-08-08T08:10:29.188Z,19.43
2023-08-08T08:13:31.998Z,19.27
2023-08-08T08:16:35.244Z,19.31
2023-08-08T08:19:38.475Z,19.61
2023-08-08T08:22:41.628Z,19.71
2023-08-08T08:25:44.469Z,19.93
2023-08-08T08:28:47.654Z,19.99
2023-08-08T08:31:50.441Z,20.30
2023-08-08T08:34:53.531Z,21.18
2023-08-08T08:37:56.361Z,21.66
2023-08-08T08:41:00.338Z,22.19
2023-08-08T08:44:05.580Z,22.43
2023-08-08T08:47:12.282Z,22.59
2023-08-08T08:50:16.902Z,23.47
2023-08-08T08:53:20.394Z,23.37
2023-08-08T08:56:24.296Z,23.23
2023-08-08T08:59:27.671Z,23.07
2023-08-08T09:02:30.566Z,22.69
2023-08-08T09:05:35.150Z,22.10
2023-08-08T09:08:38.129Z,21.92
2023-08-08T09:11:42.071Z,21.72
2023-08-08T09:14:45.103Z,21.56
2023-08-08T09:17:49.483Z,21.77
2023-08-08T09:20:52.870Z,21.74
2023-08-08T09:23:55.996Z,21.47
2023-08-08T09:26:58.730Z,21.93
2023-08-08T09:30:02.184Z,22.16
2023-08-08T09:33:05.625Z,22.35
2023-08-08T09:36:16.933Z,22.71
2023-08-08T09:39:19.783Z,23.07
2023-08-08T09:42:23.086Z,22.97
2023-08-08T09:45:26.087Z,23.89
2023-08-08T09:48:33.726Z,24.01
2023-08-08T09:51:36.909Z,23.89
2023-08-08T09:54:40.458Z,23.55
2023-08-08T09:57:43.844Z,23.84
2023-08-08T10:00:47.574Z,23.94
2023-08-08T10:03:53.267Z,23.96
2023-08-08T10:06:56.060Z,23.56
2023-08-08T10:10:00.765Z,23.19
2023-08-08T10:13:03.805Z,23.31
2023-08-08T10:16:10.534Z,22.85
2023-08-08T10:19:13.801Z,22.37
2023-08-08T10:22:22.605Z,22.14
2023-08-08T10:25:28.448Z,22.17
2023-08-08T10:28:34.649Z,22.36
2023-08-08T10:31:37.997Z,22.94
2023-08-08T10:34:46.260Z,23.42
2023-08-08T10:37:55.922Z,23.74
2023-08-08T10:41:00.866Z,24.52
2023-08-08T10:44:10.449Z,25.07
2023-08-08T10:47:13.681Z,25.19
2023-08-08T10:50:23.878Z,25.57
2023-08-08T10:53:28.570Z,25.89
2023-08-08T10:56:32.466Z,26.62
2023-08-08T10:59:39.310Z,26.83
2023-08-08T11:02:42.330Z,27.36
2023-08-08T11:05:52.510Z,27.80
2023-08-08T11:08:55.894Z,26.70
2023-08-08T11:11:59.571Z,27.23
2023-08-08T11:15:02.584Z,27.59
2023-08-08T11:18:06.085Z,27.95
2023-08-08T11:21:18.095Z,29.02
2023-08-08T11:24:22.543Z,28.71
2023-08-08T11:30:36.112Z,27.53
2023-08-08T11:33:39.882Z,27.46
2023-08-08T11:36:43.085Z,26.65
2023-08-08T11:39:46.482Z,26.61
2023-08-08T11:42:51.757Z,26.93
2023-08-08T11:45:55.142Z,25.46
2023-08-08T11:49:07.825Z,24.89
2023-08-08T11:52:10.975Z,24.10
2023-08-08T11:55:14.536Z,23.47
2023-08-08T11:58:18.581Z,23.06
2023-08-08T12:01:26.255Z,22.83
2023-08-08T12:04:29.478Z,22.14
2023-08-08T12:07:34.899Z,21.63
2023-08-08T12:10:38.002Z,20.88
2023-08-08T12:13:43.037Z,20.84
2023-08-08T12:16:46.186Z,20.68
2023-08-08T12:19:49.670Z,20.34
2023-08-08T12:22:53.053Z,20.32
2023-08-08T12:25:55.956Z,19.94
2023-08-08T12:28:59.085Z,19.89
2023-08-08T12:32:03.919Z,19.63
2023-08-08T12:35:07.742Z,19.47
2023-08-08T12:38:11.688Z,19.31
2023-08-08T12:41:14.965Z,19.17
2023-08-08T12:44:17.775Z,18.89
2023-08-08T12:47:22.430Z,18.85
2023-08-08T12:50:25.236Z,18.75
2023-08-08T12:53:28.762Z,18.54
2023-08-08T12:56:31.811Z,18.47
2023-08-08T12:59:34.836Z,18.59
2023-08-08T13:02:38.918Z,18.98
2023-08-08T13:05:42.251Z,19.23
2023-08-08T13:08:45.082Z,19.57
2023-08-08T13:11:48.277Z,19.82
2023-08-08T13:14:51.013Z,20.27
2023-08-08T13:17:54.173Z,20.89
2023-08-08T13:20:56.933Z,21.78
2023-08-08T13:24:00.118Z,23.18
2023-08-08T13:27:02.930Z,23.74
2023-08-08T13:30:07.200Z,23.21
2023-08-08T13:33:10.969Z,23.13
2023-08-08T13:36:14.152Z,23.98
2023-08-08T13:39:16.904Z,24.02
2023-08-08T13:42:19.989Z,23.77
2023-08-08T13:45:23.950Z,24.12
2023-08-08T13:48:27.038Z,24.59
2023-08-08T13:51:29.744Z,24.50
2023-08-08T13:54:33.121Z,24.41
2023-08-08T13:57:36.317Z,24.45
2023-08-08T14:00:39.500Z,24.72
2023-08-08T14:03:42.956Z,24.92
2023-08-08T14:06:46.544Z,24.59
2023-08-08T14:09:49.797Z,24.41
2023-08-08T14:12:52.649Z,24.46
2023-08-08T14:15:55.759Z,24.16
2023-08-08T14:18:58.635Z,24.10
2023-08-08T14:22:02.160Z,24.14
2023-08-08T14:25:07.403Z,24.17
2023-08-08T14:28:10.552Z,23.86
2023-08-08T14:31:13.421Z,23.54
2023-08-08T14:34:17.172Z,23.32
2023-08-08T14:37:20.069Z,23.40
2023-08-08T14:40:23.226Z,23.42
2023-08-08T14:43:26.012Z,22.90
2023-08-08T14:46:30.853Z,22.79
2023-08-08T14:49:33.751Z,22.82
2023-08-08T14:52:36.814Z,22.86
2023-08-08T14:55:39.833Z,22.75
2023-08-08T14:58:43.247Z,22.78
2023-08-08T15:01:46.304Z,22.84
2023-08-08T15:04:50.692Z,22.90
2023-08-08T15:07:53.569Z,23.00
2023-08-08T15:10:58.067Z,22.82
2023-08-08T15:14:00.859Z,22.63
2023-08-08T15:17:04.060Z,22.44
2023-08-08T15:20:07.826Z,22.39
2023-08-08T15:23:11.700Z,22.19
2023-08-08T15:26:14.629Z,22.12
2023-08-08T15:29:17.816Z,22.23
2023-08-08T15:32:20.604Z,22.19
2023-08-08T15:35:26.090Z,22.16
2023-08-08T15:38:29.619Z,22.05
2023-08-08T15:41:32.691Z,21.83
2023-08-08T15:44:35.525Z,21.79
2023-08-08T15:47:39.934Z,21.58
2023-08-08T15:50:42.833Z,21.53
2023-08-08T15:53:45.930Z,21.53
2023-08-08T15:56:48.755Z,21.48
2023-08-08T15:59:51.748Z,21.42
2023-08-08T16:02:54.732Z,21.41
2023-08-08T16:05:58.219Z,21.45
2023-08-08T16:09:01.011Z,21.49
2023-08-08T16:12:04.301Z,21.57
2023-08-08T16:15:08.566Z,21.54
2023-08-08T16:18:11.942Z,21.43
2023-08-08T16:21:14.812Z,21.37
2023-08-08T16:24:17.797Z,21.33
2023-08-08T16:27:20.574Z,21.35
2023-08-08T16:30:23.535Z,21.28
2023-08-08T16:33:26.428Z,21.27
2023-08-08T16:36:29.760Z,21.18
2023-08-08T16:39:32.617Z,21.13
2023-08-08T16:42:35.724Z,20.99
2023-08-08T16:45:38.914Z,20.86
2023-08-08T16:48:42.233Z,20.71
2023-08-08T16:51:45.012Z,20.64
2023-08-08T16:54:48.659Z,20.54
2023-08-08T16:57:51.528Z,20.45
2023-08-08T17:00:55.486Z,20.42
2023-08-08T17:03:58.951Z,20.35
2023-08-08T17:07:02.420Z,20.29
2023-08-08T17:10:06.993Z,20.24
2023-08-08T17:13:12.266Z,20.17
2023-08-08T17:16:17.282Z,20.12
2023-08-08T17:19:20.940Z,20.04
2023-08-08T17:22:24.060Z,19.93
2023-08-08T17:25:27.729Z,19.95
2023-08-08T17:28:31.557Z,19.94
2023-08-08T17:31:36.633Z,19.89
2023-08-08T17:34:40.255Z,19.81
2023-08-08T17:37:43.984Z,19.73
2023-08-08T17:40:46.960Z,19.60
2023-08-08T17:43:50.491Z,19.54
2023-08-08T17:46:54.661Z,19.38
2023-08-08T17:49:59.033Z,19.32
2023-08-08T17:53:02.292Z,19.19
2023-08-08T17:56:07.982Z,19.13
2023-08-08T17:59:11.593Z,19.03
2023-08-08T18:02:15.952Z,18.93
2023-08-08T18:05:19.546Z,18.82
2023-08-08T18:08:22.685Z,18.76
2023-08-08T18:11:26.248Z,18.71
2023-08-08T18:14:40.078Z,18.62
2023-08-08T18:17:48.160Z,18.52
2023-08-08T18:20:52.241Z,18.45
2023-08-08T18:23:57.038Z,18.36
2023-08-08T18:27:07.402Z,18.39
2023-08-08T18:30:11.988Z,18.33
2023-08-08T18:33:15.794Z,18.30
2023-08-08T18:36:23.250Z,18.30
2023-08-08T18:39:26.724Z,18.31
2023-08-08T18:42:32.670Z,18.32
2023-08-08T18:45:36.180Z,18.31
2023-08-08T18:48:41.388Z,18.29
2023-08-08T18:51:48.490Z,18.30
2023-08-08T18:54:52.471Z,18.24
2023-08-08T18:57:58.603Z,18.34
2023-08-08T19:01:05.321Z,18.43
2023-08-08T19:04:08.964Z,18.24
2023-08-08T19:07:14.674Z,18.30
2023-08-08T19:10:18.492Z,18.26
2023-08-08T19:13:23.084Z,18.29
2023-08-08T19:16:27.107Z,18.26
2023-08-08T19:19:32.867Z,18.29
2023-08-08T19:22:36.523Z,18.14
2023-08-08T19:25:40.975Z,18.17
2023-08-08T19:28:46.598Z,18.11
2023-08-08T19:31:51.631Z,17.98
2023-08-08T19:34:55.010Z,17.88
2023-08-08T19:37:59.461Z,17.78
2023-08-08T19:41:02.670Z,17.72
2023-08-08T19:44:06.750Z,17.60
2023-08-08T19:47:13.520Z,17.61
2023-08-08T19:50:18.250Z,17.55
2023-08-08T19:53:21.775Z,17.49
2023-08-08T19:56:25.452Z,17.42
2023-08-08T19:59:29.036Z,17.41
2023-08-08T20:02:33.380Z,17.41
2023-08-08T20:05:37.494Z,17.38
2023-08-08T20:08:41.571Z,17.47
2023-08-08T20:11:44.925Z,17.45
2023-08-08T20:14:48.599Z,17.39
2023-08-08T20:17:53.182Z,17.32
2023-08-08T20:20:56.273Z,17.46
2023-08-08T20:23:59.907Z,17.44
2023-08-08T20:27:03.510Z,17.43
2023-08-08T20:30:08.038Z,17.28
2023-08-08T20:33:11.783Z,17.28
2023-08-08T20:36:16.055Z,17.22
2023-08-08T20:39:19.984Z,17.13
2023-08-08T20:42:24.142Z,17.11
2023-08-08T20:45:27.918Z,17.14
2023-08-08T20:48:31.946Z,17.17
2023-08-08T20:51:35.037Z,17.09
2023-08-08T20:54:38.379Z,16.98
2023-08-08T20:57:41.146Z,16.80
2023-08-08T21:00:44.690Z,16.84
2023-08-08T21:03:47.573Z,16.77
2023-08-08T21:06:51.091Z,16.74
2023-08-08T21:09:53.957Z,16.72
2023-08-08T21:12:57.090Z,16.72
2023-08-08T21:15:59.982Z,16.72
2023-08-08T21:19:03.126Z,16.76
2023-08-08T21:22:05.813Z,16.71
2023-08-08T21:25:10.030Z,16.79
2023-08-08T21:28:13.416Z,16.72
2023-08-08T21:31:17.229Z,16.75
2023-08-08T21:34:19.968Z,16.71
2023-08-08T21:37:23.111Z,16.67
2023-08-08T21:40:25.829Z,16.73
2023-08-08T21:43:29.407Z,16.78
2023-08-08T21:46:32.267Z,16.77
2023-08-08T21:49:35.338Z,16.83
2023-08-08T21:52:38.149Z,16.86
2023-08-08T21:55:41.230Z,16.86
2023-08-08T21:58:44.065Z,16.79
2023-08-08T22:01:47.272Z,16.70
2023-08-08T22:04:52.260Z,16.71
2023-08-08T22:08:00.279Z,16.65
2023-08-08T22:11:03.417Z,16.59
2023-08-08T22:14:06.402Z,16.59
2023-08-08T22:17:09.527Z,16.56
2023-08-08T22:20:12.598Z,16.56
2023-08-08T22:23:20.309Z,16.59
2023-08-08T22:26:24.278Z,16.52
2023-08-08T22:29:27.229Z,16.55
2023-08-08T22:32:30.057Z,16.56
2023-08-08T22:35:33.202Z,16.42
2023-08-08T22:38:35.966Z,16.13
2023-08-08T22:41:39.878Z,16.15
2023-08-08T22:44:42.622Z,16.18
2023-08-08T22:47:45.753Z,16.11
2023-08-08T22:50:48.918Z,16.02
2023-08-08T22:53:52.321Z,15.86
2023-08-08T22:56:55.128Z,15.85
2023-08-08T22:59:58.260Z,15.92
2023-08-08T23:03:01.274Z,15.94
2023-08-08T23:06:04.343Z,15.93
2023-08-08T23:09:07.151Z,15.94
2023-08-08T23:12:10.114Z,15.89
2023-08-08T23:15:12.974Z,15.78
2023-08-08T23:18:16.686Z,15.74
2023-08-08T23:21:19.601Z,15.63
2023-08-08T23:24:22.602Z,15.60
2023-08-08T23:27:25.305Z,15.53
2023-08-08T23:30:28.751Z,15.50
2023-08-08T23:33:31.588Z,15.50
2023-08-08T23:36:34.648Z,15.32
2023-08-08T23:39:37.738Z,15.38
2023-08-08T23:42:40.782Z,15.44
2023-08-08T23:45:43.602Z,15.33
2023-08-08T23:48:48.415Z,15.31
2023-08-08T23:51:51.256Z,15.27
2023-08-08T23:54:54.263Z,15.12
2023-08-08T23:57:57.256Z,15.18
